sensor_id;sensor_type;location;lat;lon;timestamp;P1;durP1;ratioP1;P2;durP2;ratioP2
54745;SDS011;40640;48.130;11.356;2022-12-04T00:02:31;49.88;;;17.38;;
54745;SDS011;40640;48.130;11.356;2022-12-04T00:06:34;43.38;;;16.45;;
54745;SDS011;40640;48.130;11.356;2022-12-04T00:10:40;44.05;;;15.25;;
54745;SDS011;40640;48.130;11.356;2022-12-04T00:14:44;48.05;;;15.68;;
54745;SDS011;40640;48.130;11.356;2022-12-04T00:19:08;39.50;;;15.75;;
54745;SDS011;40640;48.130;11.356;2022-12-04T00:23:11;45.50;;;15.95;;
54745;SDS011;40640;48.130;11.356;2022-12-04T00:27:14;51.55;;;16.38;;
54745;SDS011;40640;48.130;11.356;2022-12-04T00:31:17;43.40;;;15.65;;
54745;SDS011;40640;48.130;11.356;2022-12-04T00:35:23;43.50;;;15.33;;
54745;SDS011;40640;48.130;11.356;2022-12-04T00:39:26;41.15;;;14.93;;
54745;SDS011;40640;48.130;11.356;2022-12-04T00:43:29;48.78;;;17.02;;
54745;SDS011;40640;48.130;11.356;2022-12-04T00:47:33;42.60;;;15.82;;
54745;SDS011;40640;48.130;11.356;2022-12-04T00:51:37;45.38;;;16.17;;
54745;SDS011;40640;48.130;11.356;2022-12-04T00:55:40;41.10;;;15.90;;
54745;SDS011;40640;48.130;11.356;2022-12-04T00:59:44;45.30;;;16.08;;
54745;SDS011;40640;48.130;11.356;2022-12-04T01:03:47;52.42;;;17.17;;
54745;SDS011;40640;48.130;11.356;2022-12-04T01:07:51;45.30;;;15.70;;
54745;SDS011;40640;48.130;11.356;2022-12-04T01:11:54;52.28;;;16.90;;
54745;SDS011;40640;48.130;11.356;2022-12-04T01:15:57;40.17;;;15.82;;
54745;SDS011;40640;48.130;11.356;2022-12-04T01:20:00;35.83;;;15.20;;
54745;SDS011;40640;48.130;11.356;2022-12-04T01:24:04;46.83;;;17.17;;
54745;SDS011;40640;48.130;11.356;2022-12-04T01:28:08;45.70;;;16.38;;
54745;SDS011;40640;48.130;11.356;2022-12-04T01:32:11;35.85;;;14.63;;
54745;SDS011;40640;48.130;11.356;2022-12-04T01:36:14;39.10;;;15.30;;
54745;SDS011;40640;48.130;11.356;2022-12-04T01:40:19;41.30;;;16.10;;
54745;SDS011;40640;48.130;11.356;2022-12-04T01:44:23;36.85;;;14.95;;
54745;SDS011;40640;48.130;11.356;2022-12-04T01:48:27;43.72;;;17.17;;
54745;SDS011;40640;48.130;11.356;2022-12-04T01:52:32;37.17;;;15.73;;
54745;SDS011;40640;48.130;11.356;2022-12-04T01:56:37;38.20;;;14.23;;
54745;SDS011;40640;48.130;11.356;2022-12-04T02:00:42;41.58;;;15.20;;
54745;SDS011;40640;48.130;11.356;2022-12-04T02:04:51;40.85;;;15.40;;
54745;SDS011;40640;48.130;11.356;2022-12-04T02:08:55;36.65;;;15.13;;
54745;SDS011;40640;48.130;11.356;2022-12-04T02:13:01;37.15;;;14.95;;
54745;SDS011;40640;48.130;11.356;2022-12-04T02:17:10;43.85;;;14.68;;
54745;SDS011;40640;48.130;11.356;2022-12-04T02:21:20;38.58;;;15.32;;
54745;SDS011;40640;48.130;11.356;2022-12-04T02:25:32;40.40;;;14.65;;
54745;SDS011;40640;48.130;11.356;2022-12-04T02:29:43;43.97;;;16.10;;
54745;SDS011;40640;48.130;11.356;2022-12-04T02:33:56;49.28;;;16.17;;
54745;SDS011;40640;48.130;11.356;2022-12-04T02:38:05;46.72;;;16.60;;
54745;SDS011;40640;48.130;11.356;2022-12-04T02:42:13;48.45;;;16.80;;
54745;SDS011;40640;48.130;11.356;2022-12-04T02:46:23;43.53;;;17.08;;
54745;SDS011;40640;48.130;11.356;2022-12-04T02:50:29;39.58;;;15.98;;
54745;SDS011;40640;48.130;11.356;2022-12-04T02:54:36;40.67;;;15.32;;
54745;SDS011;40640;48.130;11.356;2022-12-04T02:58:43;35.97;;;14.40;;
54745;SDS011;40640;48.130;11.356;2022-12-04T03:02:52;36.97;;;14.48;;
54745;SDS011;40640;48.130;11.356;2022-12-04T03:07:01;31.42;;;13.50;;
54745;SDS011;40640;48.130;11.356;2022-12-04T03:11:07;37.65;;;14.98;;
54745;SDS011;40640;48.130;11.356;2022-12-04T03:15:11;37.50;;;14.95;;
54745;SDS011;40640;48.130;11.356;2022-12-04T03:19:20;42.17;;;15.50;;
54745;SDS011;40640;48.130;11.356;2022-12-04T03:23:27;29.85;;;13.20;;
54745;SDS011;40640;48.130;11.356;2022-12-04T03:27:34;34.83;;;14.45;;
54745;SDS011;40640;48.130;11.356;2022-12-04T03:31:45;34.55;;;13.75;;
54745;SDS011;40640;48.130;11.356;2022-12-04T03:35:54;34.35;;;13.63;;
54745;SDS011;40640;48.130;11.356;2022-12-04T03:40:02;31.30;;;13.60;;
54745;SDS011;40640;48.130;11.356;2022-12-04T03:44:10;30.45;;;12.55;;
54745;SDS011;40640;48.130;11.356;2022-12-04T03:48:20;30.55;;;12.38;;
54745;SDS011;40640;48.130;11.356;2022-12-04T03:56:33;30.90;;;13.05;;
54745;SDS011;40640;48.130;11.356;2022-12-04T04:00:40;31.02;;;14.05;;
54745;SDS011;40640;48.130;11.356;2022-12-04T04:04:45;35.93;;;13.93;;
54745;SDS011;40640;48.130;11.356;2022-12-04T04:08:53;28.90;;;12.82;;
54745;SDS011;40640;48.130;11.356;2022-12-04T04:12:58;30.45;;;13.60;;
54745;SDS011;40640;48.130;11.356;2022-12-04T04:17:30;34.35;;;13.90;;
54745;SDS011;40640;48.130;11.356;2022-12-04T04:21:53;35.72;;;13.80;;
54745;SDS011;40640;48.130;11.356;2022-12-04T04:26:17;34.45;;;13.55;;
54745;SDS011;40640;48.130;11.356;2022-12-04T04:30:20;40.63;;;14.48;;
54745;SDS011;40640;48.130;11.356;2022-12-04T04:34:24;37.40;;;14.05;;
54745;SDS011;40640;48.130;11.356;2022-12-04T04:38:34;29.88;;;12.98;;
54745;SDS011;40640;48.130;11.356;2022-12-04T04:42:47;29.17;;;13.60;;
54745;SDS011;40640;48.130;11.356;2022-12-04T04:47:00;27.83;;;13.23;;
54745;SDS011;40640;48.130;11.356;2022-12-04T04:51:07;30.58;;;12.38;;
54745;SDS011;40640;48.130;11.356;2022-12-04T04:55:11;29.17;;;13.35;;
54745;SDS011;40640;48.130;11.356;2022-12-04T04:59:17;31.73;;;13.50;;
54745;SDS011;40640;48.130;11.356;2022-12-04T05:03:19;36.13;;;13.43;;
54745;SDS011;40640;48.130;11.356;2022-12-04T05:07:22;30.27;;;12.32;;
54745;SDS011;40640;48.130;11.356;2022-12-04T05:11:25;29.02;;;12.18;;
54745;SDS011;40640;48.130;11.356;2022-12-04T05:15:29;30.15;;;13.23;;
54745;SDS011;40640;48.130;11.356;2022-12-04T05:19:32;29.48;;;12.52;;
54745;SDS011;40640;48.130;11.356;2022-12-04T05:23:54;29.27;;;12.35;;
54745;SDS011;40640;48.130;11.356;2022-12-04T05:27:56;27.85;;;12.20;;
54745;SDS011;40640;48.130;11.356;2022-12-04T05:32:00;27.75;;;12.15;;
54745;SDS011;40640;48.130;11.356;2022-12-04T05:36:04;29.92;;;13.02;;
54745;SDS011;40640;48.130;11.356;2022-12-04T05:40:09;27.42;;;12.13;;
54745;SDS011;40640;48.130;11.356;2022-12-04T05:44:12;27.85;;;10.82;;
54745;SDS011;40640;48.130;11.356;2022-12-04T05:48:16;25.50;;;11.80;;
54745;SDS011;40640;48.130;11.356;2022-12-04T05:52:19;24.98;;;11.93;;
54745;SDS011;40640;48.130;11.356;2022-12-04T05:56:22;29.88;;;12.98;;
54745;SDS011;40640;48.130;11.356;2022-12-04T06:00:25;28.23;;;12.55;;
54745;SDS011;40640;48.130;11.356;2022-12-04T06:04:29;28.48;;;11.90;;
54745;SDS011;40640;48.130;11.356;2022-12-04T06:08:32;30.08;;;12.55;;
54745;SDS011;40640;48.130;11.356;2022-12-04T06:12:35;31.92;;;14.27;;
54745;SDS011;40640;48.130;11.356;2022-12-04T06:16:38;26.40;;;12.65;;
54745;SDS011;40640;48.130;11.356;2022-12-04T06:20:44;31.23;;;13.68;;
54745;SDS011;40640;48.130;11.356;2022-12-04T06:24:47;33.15;;;14.38;;
54745;SDS011;40640;48.130;11.356;2022-12-04T06:28:51;32.83;;;13.60;;
54745;SDS011;40640;48.130;11.356;2022-12-04T06:32:54;28.98;;;13.48;;
54745;SDS011;40640;48.130;11.356;2022-12-04T06:36:58;30.83;;;12.63;;
54745;SDS011;40640;48.130;11.356;2022-12-04T06:41:01;28.98;;;13.60;;
54745;SDS011;40640;48.130;11.356;2022-12-04T06:45:05;28.98;;;13.15;;
54745;SDS011;40640;48.130;11.356;2022-12-04T06:49:09;25.85;;;12.20;;
54745;SDS011;40640;48.130;11.356;2022-12-04T06:53:13;25.00;;;11.90;;
54745;SDS011;40640;48.130;11.356;2022-12-04T06:57:16;27.92;;;12.13;;
54745;SDS011;40640;48.130;11.356;2022-12-04T07:01:19;29.20;;;12.82;;
54745;SDS011;40640;48.130;11.356;2022-12-04T07:05:25;29.43;;;12.47;;
54745;SDS011;40640;48.130;11.356;2022-12-04T07:09:30;26.92;;;12.98;;
54745;SDS011;40640;48.130;11.356;2022-12-04T07:13:32;25.63;;;11.70;;
54745;SDS011;40640;48.130;11.356;2022-12-04T07:17:35;30.13;;;12.80;;
54745;SDS011;40640;48.130;11.356;2022-12-04T07:21:38;23.38;;;11.77;;
54745;SDS011;40640;48.130;11.356;2022-12-04T07:25:43;28.63;;;13.00;;
54745;SDS011;40640;48.130;11.356;2022-12-04T07:29:45;29.38;;;13.45;;
54745;SDS011;40640;48.130;11.356;2022-12-04T07:33:48;28.45;;;13.27;;
54745;SDS011;40640;48.130;11.356;2022-12-04T07:37:53;24.08;;;12.45;;
54745;SDS011;40640;48.130;11.356;2022-12-04T07:41:57;29.95;;;12.77;;
54745;SDS011;40640;48.130;11.356;2022-12-04T07:46:03;22.73;;;11.63;;
54745;SDS011;40640;48.130;11.356;2022-12-04T07:50:07;30.30;;;14.55;;
54745;SDS011;40640;48.130;11.356;2022-12-04T07:54:10;30.05;;;13.50;;
54745;SDS011;40640;48.130;11.356;2022-12-04T07:58:14;30.90;;;13.88;;
54745;SDS011;40640;48.130;11.356;2022-12-04T08:02:17;26.60;;;13.00;;
54745;SDS011;40640;48.130;11.356;2022-12-04T08:06:24;29.20;;;12.73;;
54745;SDS011;40640;48.130;11.356;2022-12-04T08:10:29;34.42;;;13.73;;
54745;SDS011;40640;48.130;11.356;2022-12-04T08:14:33;41.50;;;14.85;;
54745;SDS011;40640;48.130;11.356;2022-12-04T08:18:36;35.75;;;14.75;;
54745;SDS011;40640;48.130;11.356;2022-12-04T08:22:38;42.10;;;16.10;;
54745;SDS011;40640;48.130;11.356;2022-12-04T08:26:41;32.03;;;13.82;;
54745;SDS011;40640;48.130;11.356;2022-12-04T08:30:45;30.15;;;13.93;;
54745;SDS011;40640;48.130;11.356;2022-12-04T08:34:49;34.03;;;14.75;;
54745;SDS011;40640;48.130;11.356;2022-12-04T08:38:57;34.90;;;15.02;;
54745;SDS011;40640;48.130;11.356;2022-12-04T08:43:00;35.38;;;14.75;;
54745;SDS011;40640;48.130;11.356;2022-12-04T08:47:04;31.67;;;14.02;;
54745;SDS011;40640;48.130;11.356;2022-12-04T08:51:10;33.55;;;14.55;;
54745;SDS011;40640;48.130;11.356;2022-12-04T08:55:15;35.67;;;14.38;;
54745;SDS011;40640;48.130;11.356;2022-12-04T08:59:18;36.38;;;15.77;;
54745;SDS011;40640;48.130;11.356;2022-12-04T09:03:22;32.22;;;14.95;;
54745;SDS011;40640;48.130;11.356;2022-12-04T09:07:31;32.42;;;14.65;;
54745;SDS011;40640;48.130;11.356;2022-12-04T09:11:34;32.33;;;15.32;;
54745;SDS011;40640;48.130;11.356;2022-12-04T09:15:37;30.35;;;13.48;;
54745;SDS011;40640;48.130;11.356;2022-12-04T09:19:42;33.03;;;15.77;;
54745;SDS011;40640;48.130;11.356;2022-12-04T09:23:45;29.52;;;13.48;;
54745;SDS011;40640;48.130;11.356;2022-12-04T09:27:48;33.00;;;14.75;;
54745;SDS011;40640;48.130;11.356;2022-12-04T09:31:51;29.58;;;14.20;;
54745;SDS011;40640;48.130;11.356;2022-12-04T09:35:55;34.30;;;14.63;;
54745;SDS011;40640;48.130;11.356;2022-12-04T09:39:59;29.05;;;14.30;;
54745;SDS011;40640;48.130;11.356;2022-12-04T09:44:03;29.92;;;14.90;;
54745;SDS011;40640;48.130;11.356;2022-12-04T09:48:09;29.58;;;15.05;;
54745;SDS011;40640;48.130;11.356;2022-12-04T09:52:18;29.67;;;14.02;;
54745;SDS011;40640;48.130;11.356;2022-12-04T09:56:28;26.98;;;14.10;;
54745;SDS011;40640;48.130;11.356;2022-12-04T10:00:33;25.13;;;13.40;;
54745;SDS011;40640;48.130;11.356;2022-12-04T10:04:38;28.63;;;13.68;;
54745;SDS011;40640;48.130;11.356;2022-12-04T10:08:43;26.23;;;13.73;;
54745;SDS011;40640;48.130;11.356;2022-12-04T10:12:49;30.30;;;14.80;;
54745;SDS011;40640;48.130;11.356;2022-12-04T10:17:07;29.67;;;14.40;;
54745;SDS011;40640;48.130;11.356;2022-12-04T10:21:41;29.45;;;13.90;;
54745;SDS011;40640;48.130;11.356;2022-12-04T10:25:53;34.20;;;14.95;;
54745;SDS011;40640;48.130;11.356;2022-12-04T10:29:57;28.20;;;13.43;;
54745;SDS011;40640;48.130;11.356;2022-12-04T10:34:04;28.60;;;14.60;;
54745;SDS011;40640;48.130;11.356;2022-12-04T10:38:14;33.80;;;16.00;;
54745;SDS011;40640;48.130;11.356;2022-12-04T10:42:30;35.17;;;15.43;;
54745;SDS011;40640;48.130;11.356;2022-12-04T10:46:38;31.23;;;15.40;;
54745;SDS011;40640;48.130;11.356;2022-12-04T10:50:46;33.58;;;15.95;;
54745;SDS011;40640;48.130;11.356;2022-12-04T10:54:50;32.20;;;15.75;;
54745;SDS011;40640;48.130;11.356;2022-12-04T10:58:58;33.80;;;16.23;;
54745;SDS011;40640;48.130;11.356;2022-12-04T11:03:03;28.30;;;14.73;;
54745;SDS011;40640;48.130;11.356;2022-12-04T11:07:15;31.85;;;15.57;;
54745;SDS011;40640;48.130;11.356;2022-12-04T11:11:22;38.63;;;20.77;;
54745;SDS011;40640;48.130;11.356;2022-12-04T11:15:29;37.75;;;16.92;;
54745;SDS011;40640;48.130;11.356;2022-12-04T11:19:36;36.22;;;15.77;;
54745;SDS011;40640;48.130;11.356;2022-12-04T11:23:40;41.20;;;18.65;;
54745;SDS011;40640;48.130;11.356;2022-12-04T11:27:46;34.95;;;15.90;;
54745;SDS011;40640;48.130;11.356;2022-12-04T11:31:53;33.35;;;16.45;;
54745;SDS011;40640;48.130;11.356;2022-12-04T11:36:17;30.52;;;15.48;;
54745;SDS011;40640;48.130;11.356;2022-12-04T11:40:22;33.35;;;15.15;;
54745;SDS011;40640;48.130;11.356;2022-12-04T11:44:27;30.88;;;15.00;;
54745;SDS011;40640;48.130;11.356;2022-12-04T11:48:40;28.83;;;15.20;;
54745;SDS011;40640;48.130;11.356;2022-12-04T11:52:49;26.98;;;13.55;;
54745;SDS011;40640;48.130;11.356;2022-12-04T11:57:02;27.20;;;14.23;;
54745;SDS011;40640;48.130;11.356;2022-12-04T12:01:19;30.20;;;15.18;;
54745;SDS011;40640;48.130;11.356;2022-12-04T12:05:35;30.38;;;14.80;;
54745;SDS011;40640;48.130;11.356;2022-12-04T12:09:50;29.05;;;14.40;;
54745;SDS011;40640;48.130;11.356;2022-12-04T12:14:03;31.08;;;14.32;;
54745;SDS011;40640;48.130;11.356;2022-12-04T12:18:13;26.88;;;14.10;;
54745;SDS011;40640;48.130;11.356;2022-12-04T12:22:35;32.50;;;15.40;;
54745;SDS011;40640;48.130;11.356;2022-12-04T12:26:46;29.63;;;14.15;;
54745;SDS011;40640;48.130;11.356;2022-12-04T12:30:59;33.58;;;15.88;;
54745;SDS011;40640;48.130;11.356;2022-12-04T12:35:17;43.33;;;15.45;;
54745;SDS011;40640;48.130;11.356;2022-12-04T12:39:26;32.03;;;15.80;;
54745;SDS011;40640;48.130;11.356;2022-12-04T12:43:36;38.42;;;17.00;;
54745;SDS011;40640;48.130;11.356;2022-12-04T12:47:41;36.35;;;17.02;;
54745;SDS011;40640;48.130;11.356;2022-12-04T12:51:49;32.60;;;15.98;;
54745;SDS011;40640;48.130;11.356;2022-12-04T12:55:55;35.05;;;16.27;;
54745;SDS011;40640;48.130;11.356;2022-12-04T13:00:03;32.05;;;16.60;;
54745;SDS011;40640;48.130;11.356;2022-12-04T13:04:08;30.90;;;16.00;;
54745;SDS011;40640;48.130;11.356;2022-12-04T13:08:19;37.75;;;17.13;;
54745;SDS011;40640;48.130;11.356;2022-12-04T13:12:25;35.95;;;15.55;;
54745;SDS011;40640;48.130;11.356;2022-12-04T13:16:30;30.55;;;15.43;;
54745;SDS011;40640;48.130;11.356;2022-12-04T13:20:37;31.27;;;15.20;;
54745;SDS011;40640;48.130;11.356;2022-12-04T13:24:51;34.45;;;15.68;;
54745;SDS011;40640;48.130;11.356;2022-12-04T13:29:03;30.52;;;14.35;;
54745;SDS011;40640;48.130;11.356;2022-12-04T13:33:17;30.75;;;15.18;;
54745;SDS011;40640;48.130;11.356;2022-12-04T13:37:40;35.10;;;16.90;;
54745;SDS011;40640;48.130;11.356;2022-12-04T13:41:55;32.47;;;15.70;;
54745;SDS011;40640;48.130;11.356;2022-12-04T13:46:02;30.25;;;14.68;;
54745;SDS011;40640;48.130;11.356;2022-12-04T13:50:20;36.53;;;16.70;;
54745;SDS011;40640;48.130;11.356;2022-12-04T13:54:29;32.90;;;14.57;;
54745;SDS011;40640;48.130;11.356;2022-12-04T13:58:33;35.08;;;15.18;;
54745;SDS011;40640;48.130;11.356;2022-12-04T14:02:41;37.55;;;17.23;;
54745;SDS011;40640;48.130;11.356;2022-12-04T14:06:50;34.95;;;16.45;;
54745;SDS011;40640;48.130;11.356;2022-12-04T14:10:57;43.28;;;19.05;;
54745;SDS011;40640;48.130;11.356;2022-12-04T14:15:03;37.63;;;16.52;;
54745;SDS011;40640;48.130;11.356;2022-12-04T14:19:23;49.00;;;18.48;;
54745;SDS011;40640;48.130;11.356;2022-12-04T14:23:33;47.42;;;18.48;;
54745;SDS011;40640;48.130;11.356;2022-12-04T14:27:41;46.75;;;19.77;;
54745;SDS011;40640;48.130;11.356;2022-12-04T14:31:45;52.05;;;19.52;;
54745;SDS011;40640;48.130;11.356;2022-12-04T14:35:53;59.25;;;20.75;;
54745;SDS011;40640;48.130;11.356;2022-12-04T14:40:03;49.20;;;19.13;;
54745;SDS011;40640;48.130;11.356;2022-12-04T14:44:14;55.53;;;21.27;;
54745;SDS011;40640;48.130;11.356;2022-12-04T14:48:27;58.80;;;20.63;;
54745;SDS011;40640;48.130;11.356;2022-12-04T14:52:37;54.28;;;19.95;;
54745;SDS011;40640;48.130;11.356;2022-12-04T14:56:49;51.72;;;20.92;;
54745;SDS011;40640;48.130;11.356;2022-12-04T15:01:00;48.25;;;19.70;;
54745;SDS011;40640;48.130;11.356;2022-12-04T15:05:07;79.93;;;25.23;;
54745;SDS011;40640;48.130;11.356;2022-12-04T15:09:16;64.25;;;24.67;;
54745;SDS011;40640;48.130;11.356;2022-12-04T15:13:38;52.70;;;21.80;;
54745;SDS011;40640;48.130;11.356;2022-12-04T15:17:40;50.67;;;21.25;;
54745;SDS011;40640;48.130;11.356;2022-12-04T15:21:43;64.72;;;26.52;;
54745;SDS011;40640;48.130;11.356;2022-12-04T15:25:48;46.35;;;19.15;;
54745;SDS011;40640;48.130;11.356;2022-12-04T15:29:53;41.70;;;18.60;;
54745;SDS011;40640;48.130;11.356;2022-12-04T15:33:59;49.30;;;20.53;;
54745;SDS011;40640;48.130;11.356;2022-12-04T15:38:03;49.40;;;20.73;;
54745;SDS011;40640;48.130;11.356;2022-12-04T15:42:15;49.42;;;21.77;;
54745;SDS011;40640;48.130;11.356;2022-12-04T15:46:20;43.92;;;16.90;;
54745;SDS011;40640;48.130;11.356;2022-12-04T15:50:25;36.40;;;15.45;;
54745;SDS011;40640;48.130;11.356;2022-12-04T15:54:31;34.92;;;14.85;;
54745;SDS011;40640;48.130;11.356;2022-12-04T15:58:38;30.67;;;15.13;;
54745;SDS011;40640;48.130;11.356;2022-12-04T16:02:41;32.65;;;15.25;;
54745;SDS011;40640;48.130;11.356;2022-12-04T16:06:45;36.05;;;16.25;;
54745;SDS011;40640;48.130;11.356;2022-12-04T16:10:56;39.70;;;19.40;;
54745;SDS011;40640;48.130;11.356;2022-12-04T16:15:01;35.30;;;16.40;;
54745;SDS011;40640;48.130;11.356;2022-12-04T16:19:04;34.83;;;15.77;;
54745;SDS011;40640;48.130;11.356;2022-12-04T16:23:10;40.13;;;16.10;;
54745;SDS011;40640;48.130;11.356;2022-12-04T16:27:15;41.58;;;17.13;;
54745;SDS011;40640;48.130;11.356;2022-12-04T16:31:21;35.75;;;17.08;;
54745;SDS011;40640;48.130;11.356;2022-12-04T16:35:25;41.10;;;17.17;;
54745;SDS011;40640;48.130;11.356;2022-12-04T16:39:28;33.85;;;15.63;;
54745;SDS011;40640;48.130;11.356;2022-12-04T16:43:30;33.10;;;15.25;;
54745;SDS011;40640;48.130;11.356;2022-12-04T16:47:34;29.83;;;14.35;;
54745;SDS011;40640;48.130;11.356;2022-12-04T16:51:37;31.23;;;14.27;;
54745;SDS011;40640;48.130;11.356;2022-12-04T16:55:45;36.13;;;16.88;;
54745;SDS011;40640;48.130;11.356;2022-12-04T16:59:50;34.15;;;15.15;;
54745;SDS011;40640;48.130;11.356;2022-12-04T17:03:54;27.05;;;13.57;;
54745;SDS011;40640;48.130;11.356;2022-12-04T17:07:57;29.08;;;13.23;;
54745;SDS011;40640;48.130;11.356;2022-12-04T17:12:00;30.80;;;13.65;;
54745;SDS011;40640;48.130;11.356;2022-12-04T17:16:03;29.73;;;15.05;;
54745;SDS011;40640;48.130;11.356;2022-12-04T17:20:09;57.05;;;26.00;;
54745;SDS011;40640;48.130;11.356;2022-12-04T17:24:14;57.70;;;25.80;;
54745;SDS011;40640;48.130;11.356;2022-12-04T17:28:17;46.10;;;23.00;;
54745;SDS011;40640;48.130;11.356;2022-12-04T17:32:19;41.15;;;19.95;;
54745;SDS011;40640;48.130;11.356;2022-12-04T17:36:24;44.03;;;19.45;;
54745;SDS011;40640;48.130;11.356;2022-12-04T17:40:28;40.22;;;17.20;;
54745;SDS011;40640;48.130;11.356;2022-12-04T17:44:31;35.58;;;16.00;;
54745;SDS011;40640;48.130;11.356;2022-12-04T17:48:34;37.22;;;17.13;;
54745;SDS011;40640;48.130;11.356;2022-12-04T17:52:38;32.70;;;16.13;;
54745;SDS011;40640;48.130;11.356;2022-12-04T17:56:41;41.25;;;17.90;;
54745;SDS011;40640;48.130;11.356;2022-12-04T18:00:50;41.08;;;16.85;;
54745;SDS011;40640;48.130;11.356;2022-12-04T18:04:53;37.92;;;17.33;;
54745;SDS011;40640;48.130;11.356;2022-12-04T18:08:58;55.53;;;21.63;;
54745;SDS011;40640;48.130;11.356;2022-12-04T18:13:01;37.80;;;16.15;;
54745;SDS011;40640;48.130;11.356;2022-12-04T18:17:04;36.63;;;17.80;;
54745;SDS011;40640;48.130;11.356;2022-12-04T18:21:07;116.60;;;43.30;;
54745;SDS011;40640;48.130;11.356;2022-12-04T18:25:12;66.07;;;28.88;;
54745;SDS011;40640;48.130;11.356;2022-12-04T18:29:16;110.88;;;47.40;;
54745;SDS011;40640;48.130;11.356;2022-12-04T18:33:19;76.40;;;34.70;;
54745;SDS011;40640;48.130;11.356;2022-12-04T18:37:22;65.32;;;30.75;;
54745;SDS011;40640;48.130;11.356;2022-12-04T18:41:27;36.88;;;19.98;;
54745;SDS011;40640;48.130;11.356;2022-12-04T18:45:31;29.67;;;13.57;;
54745;SDS011;40640;48.130;11.356;2022-12-04T18:49:33;32.95;;;14.82;;
54745;SDS011;40640;48.130;11.356;2022-12-04T18:53:36;36.22;;;17.48;;
54745;SDS011;40640;48.130;11.356;2022-12-04T18:57:40;39.78;;;17.30;;
54745;SDS011;40640;48.130;11.356;2022-12-04T19:01:43;33.65;;;14.70;;
54745;SDS011;40640;48.130;11.356;2022-12-04T19:05:47;29.25;;;13.52;;
54745;SDS011;40640;48.130;11.356;2022-12-04T19:09:50;28.85;;;13.82;;
54745;SDS011;40640;48.130;11.356;2022-12-04T19:14:13;29.42;;;14.13;;
54745;SDS011;40640;48.130;11.356;2022-12-04T19:18:24;36.90;;;16.40;;
54745;SDS011;40640;48.130;11.356;2022-12-04T19:22:27;33.58;;;15.60;;
54745;SDS011;40640;48.130;11.356;2022-12-04T19:26:31;40.25;;;15.75;;
54745;SDS011;40640;48.130;11.356;2022-12-04T19:30:36;37.55;;;16.45;;
54745;SDS011;40640;48.130;11.356;2022-12-04T19:34:39;33.00;;;14.13;;
54745;SDS011;40640;48.130;11.356;2022-12-04T19:38:42;31.23;;;12.40;;
54745;SDS011;40640;48.130;11.356;2022-12-04T19:42:45;27.27;;;12.95;;
54745;SDS011;40640;48.130;11.356;2022-12-04T19:46:49;26.58;;;12.02;;
54745;SDS011;40640;48.130;11.356;2022-12-04T19:50:52;24.48;;;12.65;;
54745;SDS011;40640;48.130;11.356;2022-12-04T19:54:55;25.40;;;12.13;;
54745;SDS011;40640;48.130;11.356;2022-12-04T19:58:58;25.38;;;11.88;;
54745;SDS011;40640;48.130;11.356;2022-12-04T20:03:04;25.20;;;11.45;;
54745;SDS011;40640;48.130;11.356;2022-12-04T20:07:07;19.02;;;9.25;;
54745;SDS011;40640;48.130;11.356;2022-12-04T20:11:11;23.17;;;11.07;;
54745;SDS011;40640;48.130;11.356;2022-12-04T20:15:15;28.57;;;14.83;;
54745;SDS011;40640;48.130;11.356;2022-12-04T20:19:20;23.60;;;12.90;;
54745;SDS011;40640;48.130;11.356;2022-12-04T20:23:23;23.65;;;11.60;;
54745;SDS011;40640;48.130;11.356;2022-12-04T20:27:26;23.33;;;10.82;;
54745;SDS011;40640;48.130;11.356;2022-12-04T20:31:29;25.92;;;12.80;;
54745;SDS011;40640;48.130;11.356;2022-12-04T20:35:35;29.27;;;13.98;;
54745;SDS011;40640;48.130;11.356;2022-12-04T20:39:38;23.17;;;11.00;;
54745;SDS011;40640;48.130;11.356;2022-12-04T20:43:41;25.88;;;11.60;;
54745;SDS011;40640;48.130;11.356;2022-12-04T20:47:45;27.23;;;12.77;;
54745;SDS011;40640;48.130;11.356;2022-12-04T20:51:50;30.35;;;12.90;;
54745;SDS011;40640;48.130;11.356;2022-12-04T20:55:54;25.52;;;12.18;;
54745;SDS011;40640;48.130;11.356;2022-12-04T20:59:57;23.73;;;10.68;;
54745;SDS011;40640;48.130;11.356;2022-12-04T21:04:00;23.67;;;10.57;;
54745;SDS011;40640;48.130;11.356;2022-12-04T21:08:05;22.83;;;10.68;;
54745;SDS011;40640;48.130;11.356;2022-12-04T21:12:09;23.23;;;10.65;;
54745;SDS011;40640;48.130;11.356;2022-12-04T21:16:26;20.65;;;10.93;;
54745;SDS011;40640;48.130;11.356;2022-12-04T21:20:29;21.30;;;11.02;;
54745;SDS011;40640;48.130;11.356;2022-12-04T21:24:33;19.90;;;10.68;;
54745;SDS011;40640;48.130;11.356;2022-12-04T21:28:39;18.35;;;10.07;;
54745;SDS011;40640;48.130;11.356;2022-12-04T21:32:41;24.30;;;11.00;;
54745;SDS011;40640;48.130;11.356;2022-12-04T21:36:44;24.23;;;13.65;;
54745;SDS011;40640;48.130;11.356;2022-12-04T21:40:48;21.33;;;11.10;;
54745;SDS011;40640;48.130;11.356;2022-12-04T21:44:51;28.27;;;12.82;;
54745;SDS011;40640;48.130;11.356;2022-12-04T21:48:54;22.30;;;10.85;;
54745;SDS011;40640;48.130;11.356;2022-12-04T21:52:57;24.10;;;10.98;;
54745;SDS011;40640;48.130;11.356;2022-12-04T21:57:01;23.52;;;12.38;;
54745;SDS011;40640;48.130;11.356;2022-12-04T22:01:06;23.92;;;11.30;;
54745;SDS011;40640;48.130;11.356;2022-12-04T22:05:10;21.42;;;10.30;;
54745;SDS011;40640;48.130;11.356;2022-12-04T22:09:13;21.83;;;10.82;;
54745;SDS011;40640;48.130;11.356;2022-12-04T22:13:17;24.70;;;12.35;;
54745;SDS011;40640;48.130;11.356;2022-12-04T22:17:19;24.13;;;11.07;;
54745;SDS011;40640;48.130;11.356;2022-12-04T22:21:22;21.58;;;11.23;;
54745;SDS011;40640;48.130;11.356;2022-12-04T22:25:27;23.52;;;10.65;;
54745;SDS011;40640;48.130;11.356;2022-12-04T22:29:31;23.58;;;10.90;;
54745;SDS011;40640;48.130;11.356;2022-12-04T22:33:54;22.02;;;10.35;;
54745;SDS011;40640;48.130;11.356;2022-12-04T22:37:58;22.20;;;11.20;;
54745;SDS011;40640;48.130;11.356;2022-12-04T22:42:01;22.80;;;10.75;;
54745;SDS011;40640;48.130;11.356;2022-12-04T22:46:05;20.58;;;10.10;;
54745;SDS011;40640;48.130;11.356;2022-12-04T22:50:09;21.83;;;10.45;;
54745;SDS011;40640;48.130;11.356;2022-12-04T22:54:13;22.58;;;10.73;;
54745;SDS011;40640;48.130;11.356;2022-12-04T22:58:16;21.17;;;11.40;;
54745;SDS011;40640;48.130;11.356;2022-12-04T23:02:20;24.15;;;10.30;;
54745;SDS011;40640;48.130;11.356;2022-12-04T23:06:23;19.20;;;10.25;;
54745;SDS011;40640;48.130;11.356;2022-12-04T23:10:27;22.92;;;11.18;;
54745;SDS011;40640;48.130;11.356;2022-12-04T23:14:30;28.15;;;11.80;;
54745;SDS011;40640;48.130;11.356;2022-12-04T23:18:37;25.15;;;10.80;;
54745;SDS011;40640;48.130;11.356;2022-12-04T23:22:39;23.92;;;10.88;;
54745;SDS011;40640;48.130;11.356;2022-12-04T23:26:43;23.33;;;10.88;;
54745;SDS011;40640;48.130;11.356;2022-12-04T23:30:47;20.05;;;10.07;;
54745;SDS011;40640;48.130;11.356;2022-12-04T23:34:51;30.00;;;12.38;;
54745;SDS011;40640;48.130;11.356;2022-12-04T23:38:54;26.98;;;11.98;;
54745;SDS011;40640;48.130;11.356;2022-12-04T23:42:57;29.00;;;11.95;;